createdAt,value
2022-11-15T00:00:40.727Z,10.20
2022-11-15T00:04:07.435Z,10.20
2022-11-15T00:06:54.252Z,10.30
2022-11-15T00:09:45.785Z,10.30
2022-11-15T00:12:32.204Z,10.40
2022-11-15T00:15:19.087Z,10.50
2022-11-15T00:18:06.278Z,10.50
2022-11-15T00:20:52.971Z,10.50
2022-11-15T00:23:39.335Z,10.40
2022-11-15T00:26:26.142Z,10.50
2022-11-15T00:29:20.054Z,10.60
2022-11-15T00:32:06.711Z,10.70
2022-11-15T00:34:52.921Z,10.80
2022-11-15T00:37:39.732Z,10.90
2022-11-15T00:40:33.569Z,11.00
2022-11-15T00:43:21.549Z,11.10
2022-11-15T00:46:09.443Z,11.00
2022-11-15T00:48:55.871Z,11.00
2022-11-15T00:51:42.349Z,11.00
2022-11-15T00:54:29.860Z,11.10
2022-11-15T00:57:17.666Z,11.20
2022-11-15T01:00:08.182Z,11.20
2022-11-15T01:02:55.006Z,11.30
2022-11-15T01:05:40.828Z,11.30
2022-11-15T01:08:31.591Z,11.40
2022-11-15T01:11:18.193Z,11.40
2022-11-15T01:14:05.422Z,11.40
2022-11-15T01:16:51.670Z,11.40
2022-11-15T01:19:37.947Z,11.40
2022-11-15T01:22:23.862Z,11.50
2022-11-15T01:25:17.952Z,11.70
2022-11-15T01:28:04.865Z,11.70
2022-11-15T01:30:51.090Z,11.70
2022-11-15T01:33:37.878Z,11.70
2022-11-15T01:36:24.692Z,11.70
2022-11-15T01:39:12.520Z,11.70
2022-11-15T01:42:05.101Z,11.80
2022-11-15T01:44:52.175Z,11.90
2022-11-15T01:47:41.837Z,12.00
2022-11-15T01:51:00.681Z,12.00
2022-11-15T01:53:50.039Z,12.00
2022-11-15T01:56:39.297Z,12.00
2022-11-15T01:59:30.029Z,11.80
2022-11-15T02:02:16.624Z,11.80
2022-11-15T02:05:02.939Z,11.70
2022-11-15T02:07:49.657Z,11.60
2022-11-15T02:10:39.874Z,11.50
2022-11-15T02:13:26.425Z,11.40
2022-11-15T02:16:28.105Z,11.30
2022-11-15T02:19:17.032Z,11.30
2022-11-15T02:22:20.110Z,11.30
2022-11-15T02:25:25.049Z,11.10
2022-11-15T02:28:28.215Z,11.10
2022-11-15T02:31:29.925Z,11.00
2022-11-15T02:34:23.139Z,11.00
2022-11-15T02:37:26.588Z,11.00
2022-11-15T02:40:35.233Z,10.90
2022-11-15T02:43:47.880Z,10.90
2022-11-15T02:47:01.807Z,10.90
2022-11-15T02:49:49.517Z,10.90
2022-11-15T02:52:47.624Z,10.90
2022-11-15T02:55:34.656Z,11.10
2022-11-15T02:58:33.920Z,11.40
2022-11-15T03:06:10.532Z,11.40
2022-11-15T03:09:06.978Z,11.50
2022-11-15T03:11:57.506Z,11.80
2022-11-15T03:14:54.278Z,12.00
2022-11-15T03:17:48.989Z,12.10
2022-11-15T03:21:08.487Z,12.20
2022-11-15T03:24:09.012Z,12.30
2022-11-15T03:26:56.274Z,12.30
2022-11-15T03:29:45.459Z,12.30
2022-11-15T03:32:37.617Z,12.20
2022-11-15T03:35:25.714Z,12.20
2022-11-15T03:38:21.761Z,12.10
2022-11-15T03:41:09.921Z,12.10
2022-11-15T03:44:31.357Z,12.00
2022-11-15T03:47:24.010Z,12.00
2022-11-15T03:50:15.848Z,11.90
2022-11-15T03:53:02.476Z,11.90
2022-11-15T03:55:51.961Z,11.80
2022-11-15T03:58:40.073Z,11.80
2022-11-15T04:01:26.490Z,11.70
2022-11-15T04:04:13.926Z,11.70
2022-11-15T04:07:15.988Z,11.60
2022-11-15T04:10:09.991Z,11.50
2022-11-15T04:12:55.756Z,11.50
2022-11-15T04:15:42.356Z,11.50
2022-11-15T04:18:28.610Z,11.60
2022-11-15T04:21:37.379Z,11.60
2022-11-15T04:24:24.096Z,11.60
2022-11-15T04:27:11.134Z,11.60
2022-11-15T04:29:58.200Z,11.60
2022-11-15T04:32:45.444Z,11.50
2022-11-15T04:35:31.962Z,11.60
2022-11-15T04:38:19.908Z,11.60
2022-11-15T04:41:06.327Z,11.60
2022-11-15T04:44:08.449Z,11.60
2022-11-15T04:46:57.764Z,11.50
2022-11-15T04:49:45.040Z,11.40
2022-11-15T04:52:36.596Z,11.40
2022-11-15T04:55:23.776Z,11.40
2022-11-15T04:58:20.653Z,11.40
2022-11-15T05:01:08.137Z,11.20
2022-11-15T05:04:16.399Z,11.10
2022-11-15T05:07:03.260Z,11.00
2022-11-15T05:09:49.413Z,10.90
2022-11-15T05:12:35.835Z,10.80
2022-11-15T05:15:25.887Z,10.70
2022-11-15T05:18:12.221Z,10.60
2022-11-15T05:21:07.239Z,10.60
2022-11-15T05:23:53.289Z,10.60
2022-11-15T05:26:39.685Z,10.60
2022-11-15T05:29:25.583Z,10.70
2022-11-15T05:32:12.856Z,10.70
2022-11-15T05:35:00.218Z,10.80
2022-11-15T05:37:47.736Z,10.80
2022-11-15T05:40:35.763Z,10.80
2022-11-15T05:43:22.468Z,10.80
2022-11-15T05:46:08.715Z,10.70
2022-11-15T05:49:27.225Z,10.70
2022-11-15T05:52:17.532Z,10.70
2022-11-15T05:55:08.133Z,10.70
2022-11-15T05:57:55.432Z,10.70
2022-11-15T06:00:45.828Z,10.60
2022-11-15T06:03:32.105Z,10.60
2022-11-15T06:06:19.226Z,10.60
2022-11-15T06:09:11.779Z,10.60
2022-11-15T06:11:58.431Z,10.50
2022-11-15T06:14:47.557Z,10.40
2022-11-15T06:17:33.659Z,10.40
2022-11-15T06:20:25.760Z,10.40
2022-11-15T06:23:20.436Z,10.30
2022-11-15T06:26:08.276Z,10.30
2022-11-15T06:28:55.235Z,10.30
2022-11-15T06:31:46.996Z,10.30
2022-11-15T06:34:38.574Z,10.20
2022-11-15T06:37:25.328Z,10.20
2022-11-15T06:40:13.609Z,10.20
2022-11-15T06:43:00.581Z,10.10
2022-11-15T06:45:48.061Z,10.10
2022-11-15T06:48:35.193Z,10.20
2022-11-15T06:51:21.833Z,10.10
2022-11-15T06:54:08.532Z,10.10
2022-11-15T06:56:55.958Z,10.00
2022-11-15T06:59:43.182Z,10.00
2022-11-15T07:02:31.406Z,10.00
2022-11-15T07:05:18.104Z,10.00
2022-11-15T07:08:04.846Z,10.00
2022-11-15T07:10:53.083Z,10.00
2022-11-15T07:13:39.575Z,10.40
2022-11-15T07:16:26.107Z,11.20
2022-11-15T07:19:12.194Z,11.10
2022-11-15T07:21:58.785Z,10.90
2022-11-15T07:24:45.070Z,10.90
2022-11-15T07:27:31.254Z,10.80
2022-11-15T07:30:17.938Z,10.70
2022-11-15T07:33:04.112Z,10.70
2022-11-15T07:35:50.893Z,10.70
2022-11-15T07:38:43.045Z,10.80
2022-11-15T07:41:33.878Z,11.30
2022-11-15T07:44:21.149Z,11.80
2022-11-15T07:47:10.712Z,12.40
2022-11-15T07:49:57.947Z,12.80
2022-11-15T07:52:44.215Z,14.30
2022-11-15T07:55:37.482Z,14.90
2022-11-15T07:58:23.376Z,15.20
2022-11-15T08:01:11.337Z,15.60
2022-11-15T08:03:58.044Z,17.20
2022-11-15T08:06:44.601Z,18.10
2022-11-15T08:09:36.171Z,19.00
2022-11-15T08:12:23.953Z,19.90
2022-11-15T08:15:10.382Z,21.10
2022-11-15T08:17:58.404Z,20.10
2022-11-15T08:20:51.846Z,20.20
2022-11-15T08:23:37.849Z,21.20
2022-11-15T08:26:26.060Z,20.40
2022-11-15T08:29:17.760Z,20.40
2022-11-15T08:32:04.298Z,20.30
2022-11-15T08:34:51.640Z,21.10
2022-11-15T08:37:42.102Z,20.90
2022-11-15T08:40:28.609Z,21.00
2022-11-15T08:43:15.127Z,21.00
2022-11-15T08:46:01.203Z,23.60
2022-11-15T08:48:55.170Z,24.30
2022-11-15T08:51:42.272Z,25.20
2022-11-15T08:54:30.954Z,27.00
2022-11-15T08:57:17.224Z,27.20
2022-11-15T09:00:04.756Z,24.90
2022-11-15T09:02:53.212Z,24.20
2022-11-15T09:05:39.289Z,21.70
2022-11-15T09:11:33.882Z,18.80
2022-11-15T09:14:20.379Z,17.90
2022-11-15T09:17:10.943Z,17.40
2022-11-15T09:19:59.538Z,17.20
2022-11-15T09:22:45.746Z,16.60
2022-11-15T09:25:32.263Z,16.30
2022-11-15T09:28:19.204Z,16.00
2022-11-15T09:31:06.611Z,16.10
2022-11-15T09:33:53.404Z,16.30
2022-11-15T09:36:39.840Z,16.80
2022-11-15T09:39:26.003Z,17.70
2022-11-15T09:42:25.808Z,17.70
2022-11-15T09:45:24.676Z,17.60
2022-11-15T09:48:40.152Z,19.00
2022-11-15T09:51:33.953Z,20.30
2022-11-15T09:57:05.858Z,24.60
2022-11-15T09:59:53.445Z,25.70
2022-11-15T10:02:32.644Z,27.30
2022-11-15T10:05:32.559Z,26.20
2022-11-15T10:08:12.467Z,23.90
2022-11-15T10:10:45.733Z,22.80
2022-11-15T10:13:48.813Z,22.90
2022-11-15T10:16:17.372Z,22.80
2022-11-15T10:18:52.661Z,21.80
2022-11-15T10:21:30.949Z,22.00
2022-11-15T10:23:59.820Z,21.80
2022-11-15T10:26:28.103Z,21.10
2022-11-15T10:28:56.034Z,21.10
2022-11-15T10:31:26.178Z,21.20
2022-11-15T10:34:16.545Z,21.50
2022-11-15T10:37:16.758Z,22.80
2022-11-15T10:39:44.597Z,22.50
2022-11-15T10:42:18.346Z,22.10
2022-11-15T10:44:46.642Z,22.20
2022-11-15T10:47:24.191Z,22.90
2022-11-15T10:50:00.384Z,22.40
2022-11-15T10:52:35.343Z,21.70
2022-11-15T10:55:32.076Z,22.20
2022-11-15T10:58:36.088Z,22.90
2022-11-15T11:01:23.691Z,23.80
2022-11-15T11:04:03.133Z,22.70
2022-11-15T11:06:54.389Z,23.00
2022-11-15T11:09:54.305Z,23.50
2022-11-15T11:12:28.820Z,22.90
2022-11-15T11:14:56.762Z,23.30
2022-11-15T11:17:31.859Z,24.80
2022-11-15T11:20:09.176Z,23.80
2022-11-15T11:22:49.722Z,23.10
2022-11-15T11:25:35.513Z,23.00
2022-11-15T11:28:06.387Z,23.40
2022-11-15T11:30:37.408Z,23.30
2022-11-15T11:33:05.549Z,22.60
2022-11-15T11:35:33.227Z,22.60
2022-11-15T11:38:04.409Z,22.60
2022-11-15T11:40:36.199Z,22.60
2022-11-15T11:43:21.999Z,22.50
2022-11-15T11:46:16.818Z,22.10
2022-11-15T11:48:50.269Z,22.30
2022-11-15T11:51:27.290Z,21.90
2022-11-15T11:54:02.021Z,21.50
2022-11-15T11:56:34.039Z,21.20
2022-11-15T11:59:22.802Z,21.50
2022-11-15T12:01:51.571Z,21.10
2022-11-15T12:04:28.982Z,20.30
2022-11-15T12:06:57.805Z,20.00
2022-11-15T12:09:37.728Z,20.00
2022-11-15T12:12:27.403Z,19.70
2022-11-15T12:15:24.736Z,19.40
2022-11-15T12:17:52.695Z,19.50
2022-11-15T12:20:23.663Z,19.50
2022-11-15T12:22:58.353Z,19.80
2022-11-15T12:25:32.135Z,19.20
2022-11-15T12:28:05.543Z,19.10
2022-11-15T12:30:52.398Z,18.40
2022-11-15T12:33:36.709Z,18.00
2022-11-15T12:36:11.763Z,17.50
2022-11-15T12:38:49.077Z,17.40
2022-11-15T12:41:19.673Z,17.20
2022-11-15T12:43:56.093Z,16.90
2022-11-15T12:46:31.332Z,16.70
2022-11-15T12:49:02.187Z,16.60
2022-11-15T12:51:48.695Z,16.50
2022-11-15T12:54:22.891Z,16.30
2022-11-15T12:57:07.867Z,16.10
2022-11-15T12:59:59.569Z,16.00
2022-11-15T13:02:31.450Z,15.90
2022-11-15T13:05:15.387Z,16.00
2022-11-15T13:07:42.986Z,15.90
2022-11-15T13:10:13.625Z,15.80
2022-11-15T13:12:47.711Z,15.80
2022-11-15T13:15:18.482Z,15.80
2022-11-15T13:17:50.384Z,15.60
2022-11-15T13:20:18.041Z,15.70
2022-11-15T13:23:00.147Z,15.80
2022-11-15T13:25:31.867Z,15.80
2022-11-15T13:28:03.691Z,15.90
2022-11-15T13:30:35.534Z,15.90
2022-11-15T13:33:11.033Z,15.90
2022-11-15T13:35:40.801Z,15.80
2022-11-15T13:38:43.095Z,15.60
2022-11-15T13:41:24.418Z,15.60
2022-11-15T13:43:53.555Z,15.50
2022-11-15T13:46:23.525Z,15.60
2022-11-15T13:48:56.692Z,15.70
2022-11-15T13:51:40.089Z,15.70
2022-11-15T13:54:27.783Z,15.70
2022-11-15T13:56:58.659Z,15.60
2022-11-15T13:59:29.192Z,15.60
2022-11-15T14:02:00.679Z,15.60
2022-11-15T14:04:30.852Z,15.50
2022-11-15T14:07:00.756Z,15.50
2022-11-15T14:09:36.007Z,15.40
2022-11-15T14:12:21.659Z,15.40
2022-11-15T14:14:50.262Z,15.50
2022-11-15T14:17:24.579Z,15.60
2022-11-15T14:19:52.649Z,15.70
2022-11-15T14:22:29.767Z,15.70
2022-11-15T14:25:16.253Z,15.80
2022-11-15T14:27:45.539Z,15.80
2022-11-15T14:30:17.263Z,15.70
2022-11-15T14:32:47.213Z,15.60
2022-11-15T14:35:24.031Z,15.50
2022-11-15T14:37:52.881Z,15.40
2022-11-15T14:40:22.914Z,15.30
2022-11-15T14:42:56.870Z,15.30
2022-11-15T14:45:24.759Z,15.20
2022-11-15T14:47:53.214Z,15.20
2022-11-15T14:50:21.931Z,15.30
2022-11-15T14:52:53.370Z,15.30
2022-11-15T14:55:24.373Z,15.40
2022-11-15T14:57:56.812Z,15.30
2022-11-15T15:00:26.427Z,15.30
2022-11-15T15:02:55.606Z,15.30
2022-11-15T15:05:26.168Z,15.30
2022-11-15T15:07:59.030Z,15.10
2022-11-15T15:10:41.054Z,15.20
2022-11-15T15:13:17.181Z,15.20
2022-11-15T15:15:45.805Z,15.20
2022-11-15T15:18:14.607Z,15.10
2022-11-15T15:20:43.229Z,15.10
2022-11-15T15:23:17.055Z,15.10
2022-11-15T15:25:46.555Z,15.00
2022-11-15T15:28:15.043Z,14.90
2022-11-15T15:30:42.759Z,14.90
2022-11-15T15:33:13.467Z,14.90
2022-11-15T15:35:41.932Z,14.80
2022-11-15T15:38:13.419Z,14.80
2022-11-15T15:40:40.976Z,14.70
2022-11-15T15:43:15.755Z,14.70
2022-11-15T15:45:48.428Z,14.60
2022-11-15T15:48:17.843Z,14.60
2022-11-15T15:54:07.022Z,14.60
2022-11-15T15:56:34.769Z,14.50
2022-11-15T15:59:09.011Z,14.50
2022-11-15T16:01:36.681Z,14.40
2022-11-15T16:04:05.748Z,14.30
2022-11-15T16:06:39.384Z,14.30
2022-11-15T16:09:15.287Z,14.20
2022-11-15T16:11:44.842Z,14.30
2022-11-15T16:14:13.508Z,14.20
2022-11-15T16:16:40.950Z,14.20
2022-11-15T16:19:13.431Z,14.10
2022-11-15T16:21:47.829Z,14.10
2022-11-15T16:24:22.219Z,14.00
2022-11-15T16:26:50.626Z,14.00
2022-11-15T16:29:18.481Z,14.00
2022-11-15T16:31:46.206Z,13.90
2022-11-15T16:34:13.707Z,13.90
2022-11-15T16:36:41.546Z,13.90
2022-11-15T16:39:11.691Z,13.90
2022-11-15T16:41:39.731Z,13.90
2022-11-15T16:44:07.887Z,13.80
2022-11-15T16:46:35.427Z,13.80
2022-11-15T16:49:03.104Z,13.80
2022-11-15T16:51:34.635Z,13.80
2022-11-15T16:54:02.331Z,13.70
2022-11-15T16:57:34.207Z,13.70
2022-11-15T17:00:02.251Z,13.70
2022-11-15T17:02:29.882Z,13.70
2022-11-15T17:04:57.612Z,13.60
2022-11-15T17:07:28.516Z,13.60
2022-11-15T17:09:57.008Z,13.50
2022-11-15T17:12:25.143Z,13.50
2022-11-15T17:14:53.044Z,13.50
2022-11-15T17:17:26.600Z,13.50
2022-11-15T17:19:54.653Z,13.40
2022-11-15T17:22:22.250Z,13.40
2022-11-15T17:24:51.970Z,13.30
2022-11-15T17:27:21.953Z,13.30
2022-11-15T17:29:49.555Z,13.30
2022-11-15T17:32:17.629Z,13.20
2022-11-15T17:34:45.276Z,13.20
2022-11-15T17:37:16.669Z,13.20
2022-11-15T17:39:44.237Z,13.20
2022-11-15T17:42:11.847Z,13.10
2022-11-15T17:44:48.065Z,13.10
2022-11-15T17:47:15.682Z,13.10
2022-11-15T17:49:43.143Z,13.10
2022-11-15T17:52:10.889Z,13.00
2022-11-15T17:54:38.390Z,13.00
2022-11-15T17:57:05.908Z,12.90
2022-11-15T17:59:34.797Z,12.80
2022-11-15T18:02:02.466Z,12.80
2022-11-15T18:04:30.316Z,12.80
2022-11-15T18:07:01.686Z,12.80
2022-11-15T18:09:32.564Z,12.80
2022-11-15T18:12:00.197Z,12.70
2022-11-15T18:14:31.790Z,12.70
2022-11-15T18:16:59.602Z,12.70
2022-11-15T18:19:27.203Z,12.60
2022-11-15T18:22:01.959Z,12.60
2022-11-15T18:25:08.234Z,12.60
2022-11-15T18:27:36.521Z,12.50
2022-11-15T18:30:05.188Z,12.50
2022-11-15T18:32:33.035Z,12.40
2022-11-15T18:35:06.529Z,12.40
2022-11-15T18:37:34.810Z,12.30
2022-11-15T18:40:02.645Z,12.30
2022-11-15T18:42:33.095Z,12.20
2022-11-15T18:45:09.733Z,12.20
2022-11-15T18:47:37.751Z,12.20
2022-11-15T18:50:06.924Z,12.20
2022-11-15T18:52:34.665Z,12.10
2022-11-15T18:55:02.357Z,12.20
2022-11-15T18:57:30.865Z,12.10
2022-11-15T18:59:59.191Z,12.10
2022-11-15T19:02:30.111Z,12.00
2022-11-15T19:04:57.696Z,12.00
2022-11-15T19:07:25.785Z,11.90
2022-11-15T19:09:53.685Z,12.00
2022-11-15T19:12:21.320Z,11.90
2022-11-15T19:14:49.339Z,11.90
2022-11-15T19:17:20.521Z,11.90
2022-11-15T19:19:48.269Z,11.90
2022-11-15T19:22:16.356Z,11.90
2022-11-15T19:24:43.893Z,11.90
2022-11-15T19:27:15.685Z,11.90
2022-11-15T19:29:44.694Z,11.90
2022-11-15T19:32:12.639Z,11.90
2022-11-15T19:34:41.886Z,11.80
2022-11-15T19:37:09.900Z,11.90
2022-11-15T19:39:41.036Z,11.80
2022-11-15T19:42:08.901Z,11.80
2022-11-15T19:44:36.825Z,11.80
2022-11-15T19:47:04.729Z,11.80
2022-11-15T19:49:32.194Z,11.80
2022-11-15T19:52:01.509Z,11.80
2022-11-15T19:54:30.758Z,11.80
2022-11-15T19:57:05.342Z,11.80
2022-11-15T19:59:36.462Z,11.80
2022-11-15T20:02:36.331Z,11.80
2022-11-15T20:05:03.953Z,11.80
2022-11-15T20:07:31.872Z,11.80
2022-11-15T20:10:00.467Z,11.80
2022-11-15T20:12:27.997Z,11.80
2022-11-15T20:14:59.611Z,11.70
2022-11-15T20:17:27.166Z,11.70
2022-11-15T20:19:54.854Z,11.60
2022-11-15T20:22:22.896Z,11.60
2022-11-15T20:24:58.442Z,11.60
2022-11-15T20:27:26.562Z,11.50
2022-11-15T20:29:54.646Z,11.50
2022-11-15T20:32:23.189Z,11.50
2022-11-15T20:34:54.007Z,11.50
2022-11-15T20:37:22.504Z,11.50
2022-11-15T20:39:50.111Z,11.50
2022-11-15T20:42:18.085Z,11.40
2022-11-15T20:44:45.860Z,11.40
2022-11-15T20:47:13.431Z,11.40
2022-11-15T20:49:41.116Z,11.40
2022-11-15T20:52:08.862Z,11.40
2022-11-15T20:54:36.436Z,11.30
2022-11-15T20:57:04.601Z,11.30
2022-11-15T20:59:34.933Z,11.30
2022-11-15T21:02:03.112Z,11.30
2022-11-15T21:04:30.916Z,11.30
2022-11-15T21:06:58.757Z,11.20
2022-11-15T21:09:44.993Z,11.20
2022-11-15T21:12:13.801Z,11.20
2022-11-15T21:14:42.190Z,11.20
2022-11-15T21:17:13.649Z,11.20
2022-11-15T21:19:47.770Z,11.20
2022-11-15T21:22:15.559Z,11.10
2022-11-15T21:24:43.542Z,11.10
2022-11-15T21:27:11.585Z,11.10
2022-11-15T21:29:39.868Z,11.10
2022-11-15T21:32:08.343Z,11.10
2022-11-15T21:34:36.460Z,11.10
2022-11-15T21:37:04.358Z,11.00
2022-11-15T21:39:32.277Z,11.00
2022-11-15T21:42:00.461Z,11.00
2022-11-15T21:44:32.149Z,10.90
2022-11-15T21:47:00.508Z,10.90
2022-11-15T21:49:34.766Z,10.90
2022-11-15T21:52:02.584Z,10.90
2022-11-15T21:54:30.087Z,10.90
2022-11-15T21:57:00.752Z,10.80
2022-11-15T21:59:28.758Z,10.80
2022-11-15T22:02:14.765Z,10.80
2022-11-15T22:04:43.141Z,10.70
2022-11-15T22:07:10.952Z,10.80
2022-11-15T22:09:38.758Z,10.80
2022-11-15T22:12:07.371Z,10.70
2022-11-15T22:14:36.798Z,10.70
2022-11-15T22:17:04.774Z,10.70
2022-11-15T22:19:51.626Z,10.70
2022-11-15T22:22:26.555Z,10.70
2022-11-15T22:24:54.257Z,10.70
2022-11-15T22:27:22.630Z,10.70
2022-11-15T22:29:50.257Z,10.70
2022-11-15T22:32:18.198Z,10.70
2022-11-15T22:34:46.228Z,10.70
2022-11-15T22:37:20.667Z,10.60
2022-11-15T22:39:49.464Z,10.60
2022-11-15T22:42:23.233Z,10.70
2022-11-15T22:44:51.842Z,10.60
2022-11-15T22:47:19.612Z,10.70
2022-11-15T22:49:47.454Z,10.70
2022-11-15T22:52:25.621Z,10.70
2022-11-15T22:55:01.585Z,10.60
2022-11-15T22:57:38.409Z,10.70
2022-11-15T23:00:09.666Z,10.60
2022-11-15T23:02:37.404Z,10.60
2022-11-15T23:05:06.424Z,10.60
2022-11-15T23:07:40.883Z,10.60
2022-11-15T23:10:27.182Z,10.50
2022-11-15T23:13:13.619Z,10.50
2022-11-15T23:16:00.041Z,10.50
2022-11-15T23:18:28.903Z,10.50
2022-11-15T23:20:56.901Z,10.40
2022-11-15T23:23:26.307Z,10.40
2022-11-15T23:25:58.447Z,10.40
2022-11-15T23:28:26.216Z,10.40
2022-11-15T23:31:17.308Z,10.40
2022-11-15T23:34:00.672Z,10.40
2022-11-15T23:36:29.108Z,10.30
2022-11-15T23:38:56.883Z,10.30
2022-11-15T23:41:25.162Z,10.30
2022-11-15T23:43:52.862Z,10.30
2022-11-15T23:46:20.618Z,10.20
2022-11-15T23:48:48.707Z,10.10
2022-11-15T23:51:20.262Z,10.10
2022-11-15T23:53:48.419Z,10.10
2022-11-15T23:56:18.042Z,10.10
2022-11-15T23:58:46.002Z,10.20
